createdAt,value
2019-05-21T00:00:32.124Z,93.74
2019-05-21T00:02:39.478Z,93.67
2019-05-21T00:04:46.900Z,93.88
2019-05-21T00:06:54.437Z,94.12
2019-05-21T00:09:02.180Z,93.99
2019-05-21T00:11:09.693Z,93.75
2019-05-21T00:13:17.225Z,94.32
2019-05-21T00:15:24.584Z,93.88
2019-05-21T00:17:31.977Z,93.73
2019-05-21T00:19:39.543Z,94.18
2019-05-21T00:21:47.006Z,94.17
2019-05-21T00:23:54.379Z,94.37
2019-05-21T00:26:01.884Z,94.32
2019-05-21T00:28:42.112Z,94.25
2019-05-21T00:31:43.412Z,93.82
2019-05-21T00:34:44.537Z,94.66
2019-05-21T00:37:46.013Z,94.55
2019-05-21T00:40:47.297Z,94.16
2019-05-21T00:42:55.109Z,94.38
2019-05-21T00:45:02.627Z,94.46
2019-05-21T00:47:12.619Z,94.58
2019-05-21T00:49:20.069Z,94.80
2019-05-21T00:51:27.539Z,94.75
2019-05-21T00:53:34.909Z,94.55
2019-05-21T00:55:42.306Z,94.22
2019-05-21T00:57:49.689Z,94.73
2019-05-21T00:59:57.108Z,94.60
2019-05-21T01:02:04.667Z,94.82
2019-05-21T01:04:12.399Z,94.49
2019-05-21T01:06:19.842Z,94.01
2019-05-21T01:08:27.198Z,94.69
2019-05-21T01:10:34.629Z,94.63
2019-05-21T01:12:42.105Z,94.63
2019-05-21T01:14:49.558Z,94.78
2019-05-21T01:16:57.094Z,94.46
2019-05-21T01:19:04.556Z,94.41
2019-05-21T01:21:12.696Z,93.75
2019-05-21T01:23:20.067Z,94.14
2019-05-21T01:25:27.457Z,94.34
2019-05-21T01:27:34.911Z,94.85
2019-05-21T01:29:42.641Z,94.61
2019-05-21T01:31:50.130Z,94.61
2019-05-21T01:33:57.531Z,94.81
2019-05-21T01:36:05.149Z,94.77
2019-05-21T01:38:12.550Z,94.90
2019-05-21T01:40:19.956Z,94.93
2019-05-21T01:42:27.344Z,94.41
2019-05-21T01:44:34.787Z,94.75
2019-05-21T01:46:42.238Z,94.90
2019-05-21T01:48:49.665Z,94.79
2019-05-21T01:50:57.239Z,94.73
2019-05-21T01:53:04.644Z,94.32
2019-05-21T01:55:12.242Z,94.01
2019-05-21T01:57:19.607Z,94.33
2019-05-21T02:02:50.584Z,95.04
2019-05-21T02:04:57.948Z,94.24
2019-05-21T02:07:05.389Z,94.41
2019-05-21T02:09:12.882Z,94.55
2019-05-21T02:11:20.352Z,93.95
2019-05-21T02:13:27.924Z,94.14
2019-05-21T02:15:35.384Z,94.80
2019-05-21T02:17:42.820Z,95.04
2019-05-21T02:20:09.060Z,94.55
2019-05-21T02:22:16.434Z,94.79
2019-05-21T02:24:23.929Z,95.19
2019-05-21T02:26:31.436Z,95.59
2019-05-21T02:28:38.837Z,95.65
2019-05-21T02:30:46.233Z,95.24
2019-05-21T02:32:53.634Z,95.25
2019-05-21T02:35:01.055Z,95.07
2019-05-21T02:37:08.504Z,95.07
2019-05-21T02:39:15.940Z,95.45
2019-05-21T02:41:23.345Z,95.22
2019-05-21T02:43:31.088Z,95.63
2019-05-21T02:45:38.458Z,95.43
2019-05-21T02:47:45.979Z,95.12
2019-05-21T02:49:53.433Z,95.34
2019-05-21T02:52:00.918Z,95.34
2019-05-21T02:54:08.408Z,95.58
2019-05-21T02:56:15.779Z,95.18
2019-05-21T02:58:23.292Z,95.27
2019-05-21T03:00:49.613Z,95.14
2019-05-21T03:02:57.377Z,95.10
2019-05-21T03:05:05.332Z,94.78
2019-05-21T03:07:18.685Z,95.20
2019-05-21T03:09:26.020Z,94.83
2019-05-21T03:11:33.402Z,95.32
2019-05-21T03:13:40.877Z,95.43
2019-05-21T03:15:48.331Z,95.44
2019-05-21T03:17:55.826Z,95.43
2019-05-21T03:20:03.205Z,95.57
2019-05-21T03:22:10.887Z,95.50
2019-05-21T03:24:18.243Z,95.52
2019-05-21T03:26:25.685Z,95.57
2019-05-21T03:28:33.756Z,95.11
2019-05-21T03:30:42.304Z,95.24
2019-05-21T03:32:49.810Z,95.56
2019-05-21T03:34:57.285Z,95.40
2019-05-21T03:37:04.837Z,95.48
2019-05-21T03:39:13.131Z,95.57
2019-05-21T03:41:20.542Z,95.65
2019-05-21T03:43:28.157Z,95.43
2019-05-21T03:45:35.682Z,95.57
2019-05-21T03:47:43.204Z,95.76
2019-05-21T03:49:50.707Z,94.96
2019-05-21T03:51:58.114Z,95.04
2019-05-21T03:54:05.521Z,94.84
2019-05-21T03:56:13.077Z,95.39
2019-05-21T03:58:20.455Z,94.88
2019-05-21T04:00:27.841Z,94.65
2019-05-21T04:02:35.323Z,95.01
2019-05-21T04:04:42.764Z,95.27
2019-05-21T04:06:52.378Z,95.10
2019-05-21T04:08:59.393Z,95.57
2019-05-21T04:11:07.201Z,95.91
2019-05-21T04:13:14.628Z,95.26
2019-05-21T04:15:23.748Z,94.60
2019-05-21T04:17:55.602Z,94.78
2019-05-21T04:20:02.956Z,94.59
2019-05-21T04:22:17.414Z,94.29
2019-05-21T04:24:24.803Z,93.85
2019-05-21T04:26:32.244Z,93.96
2019-05-21T04:28:39.830Z,93.60
2019-05-21T04:30:47.306Z,93.90
2019-05-21T04:32:54.715Z,94.11
2019-05-21T04:35:02.221Z,94.14
2019-05-21T04:37:11.838Z,94.09
2019-05-21T04:39:19.029Z,93.59
2019-05-21T04:41:26.386Z,92.92
2019-05-21T04:43:33.915Z,93.65
2019-05-21T04:45:41.316Z,93.62
2019-05-21T04:47:48.770Z,93.91
2019-05-21T04:49:56.379Z,94.34
2019-05-21T04:52:03.786Z,94.40
2019-05-21T04:54:11.220Z,93.79
2019-05-21T04:56:18.658Z,92.93
2019-05-21T04:58:26.185Z,92.77
2019-05-21T05:00:33.788Z,93.29
2019-05-21T05:02:41.466Z,92.82
2019-05-21T05:04:49.809Z,92.53
2019-05-21T05:06:57.447Z,92.42
2019-05-21T05:09:05.713Z,93.13
2019-05-21T05:11:13.287Z,93.69
2019-05-21T05:13:20.703Z,93.25
2019-05-21T05:15:28.292Z,93.43
2019-05-21T05:17:35.804Z,92.47
2019-05-21T05:19:43.419Z,93.05
2019-05-21T05:21:50.942Z,92.85
2019-05-21T05:23:58.446Z,92.41
2019-05-21T05:26:06.216Z,92.38
2019-05-21T05:28:13.735Z,92.86
2019-05-21T05:30:21.212Z,92.26
2019-05-21T05:32:28.981Z,92.90
2019-05-21T05:34:36.365Z,91.75
2019-05-21T05:36:43.754Z,90.60
2019-05-21T05:38:52.182Z,90.15
2019-05-21T05:40:59.678Z,91.36
2019-05-21T05:43:07.080Z,90.46
2019-05-21T05:45:15.568Z,91.40
2019-05-21T05:47:22.927Z,91.16
2019-05-21T05:49:35.330Z,91.17
2019-05-21T05:51:42.805Z,91.40
2019-05-21T05:53:59.437Z,90.93
2019-05-21T05:56:06.939Z,90.11
2019-05-21T05:58:14.336Z,89.33
2019-05-21T06:00:22.176Z,89.16
2019-05-21T06:02:29.690Z,88.23
2019-05-21T06:04:37.300Z,89.19
2019-05-21T06:06:44.868Z,88.28
2019-05-21T06:08:52.309Z,86.71
2019-05-21T06:10:59.854Z,87.41
2019-05-21T06:13:07.538Z,89.54
2019-05-21T06:15:17.150Z,89.13
2019-05-21T06:17:24.812Z,89.30
2019-05-21T06:19:32.358Z,87.41
2019-05-21T06:21:39.859Z,87.02
2019-05-21T06:23:47.531Z,88.02
2019-05-21T06:25:55.174Z,86.28
2019-05-21T06:28:02.600Z,85.27
2019-05-21T06:30:10.939Z,83.69
2019-05-21T06:32:18.506Z,84.79
2019-05-21T06:34:26.094Z,83.78
2019-05-21T06:36:34.469Z,85.84
2019-05-21T06:38:41.986Z,86.84
2019-05-21T06:40:49.553Z,86.20
2019-05-21T06:42:57.945Z,86.01
2019-05-21T06:45:06.257Z,86.32
2019-05-21T06:47:13.832Z,85.00
2019-05-21T06:49:21.383Z,83.67
2019-05-21T06:51:28.973Z,83.00
2019-05-21T06:53:36.504Z,86.02
2019-05-21T06:55:44.255Z,86.34
2019-05-21T06:57:51.745Z,86.57
2019-05-21T06:59:59.338Z,86.34
2019-05-21T07:02:06.759Z,85.27
2019-05-21T07:04:14.431Z,83.45
2019-05-21T07:06:22.043Z,83.09
2019-05-21T07:08:34.673Z,84.66
2019-05-21T07:10:39.470Z,85.29
2019-05-21T07:12:47.472Z,84.26
2019-05-21T07:14:55.141Z,84.11
2019-05-21T07:17:02.741Z,83.47
2019-05-21T07:19:10.631Z,82.77
2019-05-21T07:21:18.204Z,82.34
2019-05-21T07:23:25.850Z,82.12
2019-05-21T07:25:33.300Z,82.47
2019-05-21T07:27:40.769Z,83.44
2019-05-21T07:29:48.471Z,83.76
2019-05-21T07:31:56.787Z,83.76
2019-05-21T07:34:04.295Z,81.11
2019-05-21T07:36:11.898Z,80.24
2019-05-21T07:38:19.585Z,78.94
2019-05-21T07:40:27.507Z,77.79
2019-05-21T07:42:35.035Z,79.43
2019-05-21T07:44:42.763Z,80.06
2019-05-21T07:46:50.680Z,80.32
2019-05-21T07:48:58.266Z,77.84
2019-05-21T07:51:06.174Z,76.43
2019-05-21T07:53:14.380Z,76.99
2019-05-21T07:55:24.464Z,77.46
2019-05-21T07:57:32.310Z,79.25
2019-05-21T07:59:40.016Z,78.33
2019-05-21T08:01:47.452Z,77.50
2019-05-21T08:03:55.017Z,77.20
2019-05-21T08:06:02.578Z,76.30
2019-05-21T08:08:10.428Z,78.83
2019-05-21T08:10:18.290Z,76.99
2019-05-21T08:12:38.310Z,77.49
2019-05-21T08:14:34.938Z,79.27
2019-05-21T08:16:42.383Z,78.47
2019-05-21T08:18:49.973Z,75.70
2019-05-21T08:20:57.674Z,76.09
2019-05-21T08:23:05.139Z,72.71
2019-05-21T08:25:14.826Z,76.12
2019-05-21T08:27:22.135Z,76.61
2019-05-21T08:29:29.631Z,71.39
2019-05-21T08:31:37.085Z,70.15
2019-05-21T08:33:44.831Z,71.37
2019-05-21T08:35:52.289Z,72.11
2019-05-21T08:37:59.755Z,73.21
2019-05-21T08:40:08.530Z,73.61
2019-05-21T08:42:16.357Z,73.48
2019-05-21T08:44:24.061Z,72.67
2019-05-21T08:46:31.552Z,73.87
2019-05-21T08:48:38.980Z,72.76
2019-05-21T08:50:46.531Z,73.21
2019-05-21T08:52:53.944Z,71.62
2019-05-21T08:55:01.508Z,73.04
2019-05-21T08:57:09.046Z,73.24
2019-05-21T08:59:16.799Z,72.76
2019-05-21T09:01:24.266Z,72.28
2019-05-21T09:03:31.700Z,73.42
2019-05-21T09:05:39.357Z,72.68
2019-05-21T09:07:52.952Z,71.29
2019-05-21T09:09:56.358Z,70.25
2019-05-21T09:12:03.876Z,70.24
2019-05-21T09:14:11.388Z,72.14
2019-05-21T09:16:19.026Z,68.19
2019-05-21T09:18:26.604Z,72.12
2019-05-21T09:20:34.334Z,71.58
2019-05-21T09:22:41.901Z,70.92
2019-05-21T09:24:50.250Z,70.11
2019-05-21T09:26:57.729Z,71.59
2019-05-21T09:29:05.126Z,69.82
2019-05-21T09:31:12.665Z,68.92
2019-05-21T09:33:20.047Z,70.31
2019-05-21T09:35:27.500Z,68.92
2019-05-21T09:37:34.917Z,69.20
2019-05-21T09:39:42.384Z,69.49
2019-05-21T09:41:50.118Z,70.82
2019-05-21T09:43:57.664Z,70.35
2019-05-21T09:46:05.483Z,70.57
2019-05-21T09:48:12.892Z,70.78
2019-05-21T09:50:22.198Z,71.59
2019-05-21T09:52:29.614Z,72.23
2019-05-21T09:54:37.164Z,72.43
2019-05-21T09:56:44.680Z,73.12
2019-05-21T09:58:52.719Z,73.34
2019-05-21T10:01:18.939Z,74.75
2019-05-21T10:03:29.004Z,75.35
2019-05-21T10:05:36.642Z,75.38
2019-05-21T10:07:44.202Z,74.91
2019-05-21T10:09:51.629Z,75.27
2019-05-21T10:11:59.213Z,75.80
2019-05-21T10:14:07.138Z,74.65
2019-05-21T10:16:14.654Z,74.38
2019-05-21T10:18:22.140Z,74.00
2019-05-21T10:20:29.876Z,74.45
2019-05-21T10:22:37.389Z,74.32
2019-05-21T10:24:44.894Z,74.22
2019-05-21T10:26:52.428Z,74.01
2019-05-21T10:29:00.247Z,75.04
2019-05-21T10:31:08.241Z,75.37
2019-05-21T10:33:15.607Z,73.35
2019-05-21T10:35:23.784Z,73.02
2019-05-21T10:37:31.309Z,71.71
2019-05-21T10:39:38.909Z,75.34
2019-05-21T10:41:46.615Z,74.69
2019-05-21T10:43:54.033Z,72.00
2019-05-21T10:46:01.513Z,73.08
2019-05-21T10:48:09.114Z,72.36
2019-05-21T10:50:17.768Z,71.78
2019-05-21T10:52:25.481Z,71.91
2019-05-21T10:54:32.984Z,73.76
2019-05-21T10:56:47.743Z,73.27
2019-05-21T10:58:49.657Z,73.49
2019-05-21T11:01:03.362Z,73.71
2019-05-21T11:03:18.384Z,74.18
2019-05-21T11:05:35.500Z,73.90
2019-05-21T11:07:43.119Z,73.52
2019-05-21T11:09:50.734Z,72.03
2019-05-21T11:11:58.356Z,73.58
2019-05-21T11:14:06.071Z,74.45
2019-05-21T11:16:13.667Z,74.55
2019-05-21T11:18:21.203Z,74.24
2019-05-21T11:20:28.965Z,73.55
2019-05-21T11:22:36.554Z,73.44
2019-05-21T11:24:43.937Z,73.15
2019-05-21T11:26:51.580Z,74.31
2019-05-21T11:28:59.261Z,73.20
2019-05-21T11:31:06.688Z,71.81
2019-05-21T11:33:14.331Z,72.58
2019-05-21T11:35:22.898Z,72.92
2019-05-21T11:37:30.389Z,74.61
2019-05-21T11:39:37.834Z,74.42
2019-05-21T11:41:45.764Z,74.79
2019-05-21T11:43:53.406Z,74.62
2019-05-21T11:46:02.962Z,73.48
2019-05-21T11:48:10.116Z,73.48
2019-05-21T11:50:18.780Z,73.15
2019-05-21T11:52:26.303Z,73.23
2019-05-21T11:54:33.751Z,72.74
2019-05-21T11:56:41.330Z,73.80
2019-05-21T11:58:48.996Z,73.98
2019-05-21T12:00:56.707Z,73.85
2019-05-21T12:03:04.355Z,73.92
2019-05-21T12:05:12.852Z,74.37
2019-05-21T12:07:20.707Z,74.68
2019-05-21T12:09:28.553Z,75.15
2019-05-21T12:11:36.418Z,75.48
2019-05-21T12:13:46.204Z,76.05
2019-05-21T12:15:54.137Z,76.37
2019-05-21T12:18:02.095Z,76.12
2019-05-21T12:20:11.250Z,76.30
2019-05-21T12:22:19.109Z,77.51
2019-05-21T12:24:27.668Z,76.46
2019-05-21T12:26:35.430Z,76.12
2019-05-21T12:28:43.630Z,76.46
2019-05-21T12:30:51.559Z,75.76
2019-05-21T12:32:59.507Z,76.28
2019-05-21T12:35:08.720Z,76.66
2019-05-21T12:37:17.416Z,76.65
2019-05-21T12:39:25.307Z,77.06
2019-05-21T12:41:33.183Z,79.97
2019-05-21T12:43:40.698Z,80.91
2019-05-21T12:45:48.405Z,81.50
2019-05-21T12:47:56.239Z,86.22
2019-05-21T12:50:04.036Z,86.75
2019-05-21T12:52:12.235Z,86.77
2019-05-21T12:54:20.302Z,85.44
2019-05-21T12:56:28.152Z,87.37
2019-05-21T12:58:36.319Z,90.21
2019-05-21T13:00:44.726Z,90.26
2019-05-21T13:02:52.517Z,91.08
2019-05-21T13:05:00.331Z,91.20
2019-05-21T13:07:08.326Z,88.58
2019-05-21T13:09:31.341Z,90.30
2019-05-21T13:11:25.900Z,92.06
2019-05-21T13:13:33.593Z,92.29
2019-05-21T13:15:41.325Z,91.09
2019-05-21T13:17:49.259Z,90.58
2019-05-21T13:19:57.042Z,87.93
2019-05-21T13:22:04.961Z,89.56
2019-05-21T13:24:12.998Z,86.74
2019-05-21T13:26:20.584Z,88.16
2019-05-21T13:28:29.338Z,85.46
2019-05-21T13:30:37.625Z,85.43
2019-05-21T13:32:46.693Z,86.36
2019-05-21T13:34:56.158Z,83.75
2019-05-21T13:37:05.065Z,85.03
2019-05-21T13:39:14.263Z,84.16
2019-05-21T13:41:23.287Z,83.22
2019-05-21T13:43:31.420Z,82.60
2019-05-21T13:45:40.625Z,83.79
2019-05-21T13:47:49.059Z,80.55
2019-05-21T13:50:00.669Z,81.16
2019-05-21T13:52:08.832Z,83.43
2019-05-21T13:54:16.540Z,82.20
2019-05-21T13:56:24.810Z,77.90
2019-05-21T13:58:33.521Z,81.49
2019-05-21T14:00:45.920Z,78.38
2019-05-21T14:02:54.503Z,78.65
2019-05-21T14:05:02.897Z,80.54
2019-05-21T14:07:15.198Z,81.99
2019-05-21T14:09:24.574Z,83.35
2019-05-21T14:11:33.017Z,80.48
2019-05-21T14:13:41.617Z,75.57
2019-05-21T14:15:50.822Z,77.61
2019-05-21T14:17:59.395Z,76.06
2019-05-21T14:20:08.759Z,75.04
2019-05-21T14:22:19.461Z,77.68
2019-05-21T14:24:29.770Z,79.12
2019-05-21T14:26:37.292Z,78.74
2019-05-21T14:28:44.820Z,80.06
2019-05-21T14:30:52.354Z,79.14
2019-05-21T14:33:00.078Z,79.72
2019-05-21T14:35:09.676Z,78.45
2019-05-21T14:37:17.387Z,78.39
2019-05-21T14:39:25.122Z,77.92
2019-05-21T14:41:32.771Z,77.30
2019-05-21T14:43:40.629Z,74.65
2019-05-21T14:45:48.120Z,74.64
2019-05-21T14:47:55.740Z,73.40
2019-05-21T14:50:03.178Z,71.88
2019-05-21T14:52:11.062Z,66.85
2019-05-21T14:54:26.854Z,68.76
2019-05-21T14:56:27.930Z,70.93
2019-05-21T14:58:35.446Z,70.61
2019-05-21T15:00:43.250Z,70.44
2019-05-21T15:02:52.756Z,70.06
2019-05-21T15:05:02.071Z,70.60
2019-05-21T15:07:09.685Z,69.91
2019-05-21T15:09:17.220Z,71.14
2019-05-21T15:11:24.741Z,70.85
2019-05-21T15:13:33.507Z,70.38
2019-05-21T15:15:41.143Z,70.66
2019-05-21T15:17:48.911Z,71.26
2019-05-21T15:19:57.894Z,69.85
2019-05-21T15:22:05.494Z,71.62
2019-05-21T15:24:13.223Z,70.79
2019-05-21T15:26:21.119Z,69.85
2019-05-21T15:28:29.014Z,70.95
2019-05-21T15:30:36.854Z,70.32
2019-05-21T15:32:44.578Z,68.49
2019-05-21T15:34:52.186Z,69.81
2019-05-21T15:36:59.906Z,69.31
2019-05-21T15:39:09.594Z,67.28
2019-05-21T15:41:17.197Z,68.27
2019-05-21T15:43:24.817Z,69.30
2019-05-21T15:45:32.303Z,69.32
2019-05-21T15:47:39.934Z,69.81
2019-05-21T15:49:47.704Z,70.34
2019-05-21T15:51:55.332Z,71.50
2019-05-21T15:54:02.722Z,70.40
2019-05-21T15:56:10.147Z,70.75
2019-05-21T15:58:17.665Z,68.44
2019-05-21T16:00:26.024Z,65.13
2019-05-21T16:02:33.699Z,65.79
2019-05-21T16:04:41.750Z,64.88
2019-05-21T16:06:49.687Z,64.65
2019-05-21T16:08:57.542Z,61.24
2019-05-21T16:11:05.473Z,62.81
2019-05-21T16:13:13.147Z,64.02
2019-05-21T16:15:21.147Z,61.77
2019-05-21T16:17:28.926Z,63.51
2019-05-21T16:19:36.472Z,61.00
2019-05-21T16:21:45.045Z,61.19
2019-05-21T16:23:52.673Z,61.81
2019-05-21T16:26:00.473Z,60.08
2019-05-21T16:28:08.092Z,61.12
2019-05-21T16:30:16.517Z,60.89
2019-05-21T16:32:24.306Z,60.11
2019-05-21T16:34:32.227Z,60.69
2019-05-21T16:36:40.553Z,60.60
2019-05-21T16:38:48.239Z,61.11
2019-05-21T16:40:55.948Z,60.88
2019-05-21T16:43:03.755Z,62.87
2019-05-21T16:45:11.953Z,62.75
2019-05-21T16:47:19.506Z,63.61
2019-05-21T16:49:27.166Z,63.77
2019-05-21T16:51:34.781Z,65.33
2019-05-21T16:53:42.317Z,59.93
2019-05-21T16:55:50.463Z,60.25
2019-05-21T16:57:58.485Z,61.73
2019-05-21T17:00:07.065Z,61.87
2019-05-21T17:02:14.742Z,62.91
2019-05-21T17:04:22.299Z,63.51
2019-05-21T17:06:29.785Z,63.59
2019-05-21T17:08:37.397Z,63.40
2019-05-21T17:10:45.827Z,64.31
2019-05-21T17:12:53.483Z,65.72
2019-05-21T17:15:00.970Z,65.04
2019-05-21T17:17:08.843Z,63.85
2019-05-21T17:19:16.503Z,63.13
2019-05-21T17:21:24.132Z,64.53
2019-05-21T17:23:31.598Z,65.01
2019-05-21T17:25:39.099Z,65.91
2019-05-21T17:27:46.625Z,64.18
2019-05-21T17:29:54.380Z,66.22
2019-05-21T17:32:02.026Z,63.64
2019-05-21T17:34:09.555Z,62.93
2019-05-21T17:36:17.165Z,63.82
2019-05-21T17:38:24.820Z,63.89
2019-05-21T17:40:32.410Z,64.33
2019-05-21T17:42:40.835Z,63.44
2019-05-21T17:44:48.387Z,64.77
2019-05-21T17:46:56.074Z,64.94
2019-05-21T17:49:03.929Z,65.17
2019-05-21T17:51:11.877Z,65.35
2019-05-21T17:53:19.530Z,66.24
2019-05-21T17:55:27.236Z,64.99
2019-05-21T17:57:35.924Z,65.35
2019-05-21T17:59:44.593Z,64.36
2019-05-21T18:01:52.772Z,65.08
2019-05-21T18:04:00.786Z,66.10
2019-05-21T18:06:08.891Z,66.88
2019-05-21T18:08:17.284Z,66.28
2019-05-21T18:10:25.169Z,66.43
2019-05-21T18:12:32.925Z,65.35
2019-05-21T18:14:40.955Z,66.38
2019-05-21T18:16:48.548Z,66.53
2019-05-21T18:18:56.509Z,65.18
2019-05-21T18:21:04.113Z,65.70
2019-05-21T18:23:12.374Z,67.02
2019-05-21T18:25:20.204Z,65.02
2019-05-21T18:27:27.968Z,66.10
2019-05-21T18:29:35.833Z,66.08
2019-05-21T18:31:43.590Z,66.21
2019-05-21T18:33:51.227Z,67.63
2019-05-21T18:35:58.679Z,67.19
2019-05-21T18:38:06.316Z,67.65
2019-05-21T18:40:14.300Z,67.76
2019-05-21T18:42:22.780Z,69.05
2019-05-21T18:44:30.599Z,68.34
2019-05-21T18:46:38.159Z,68.26
2019-05-21T18:48:46.090Z,69.17
2019-05-21T18:50:53.605Z,68.51
2019-05-21T18:53:01.252Z,69.45
2019-05-21T18:55:10.250Z,69.22
2019-05-21T18:57:18.260Z,70.02
2019-05-21T18:59:26.243Z,70.79
2019-05-21T19:01:38.187Z,71.68
2019-05-21T19:03:44.232Z,71.33
2019-05-21T19:05:52.149Z,71.61
2019-05-21T19:07:59.749Z,71.56
2019-05-21T19:10:08.433Z,71.43
2019-05-21T19:12:16.996Z,71.43
2019-05-21T19:14:24.806Z,71.87
2019-05-21T19:16:33.105Z,73.47
2019-05-21T19:18:41.259Z,71.92
2019-05-21T19:20:50.091Z,71.85
2019-05-21T19:22:59.306Z,73.20
2019-05-21T19:25:07.822Z,72.96
2019-05-21T19:27:15.898Z,72.49
2019-05-21T19:29:23.589Z,72.59
2019-05-21T19:31:31.206Z,72.60
2019-05-21T19:33:39.181Z,72.69
2019-05-21T19:35:46.784Z,71.81
2019-05-21T19:37:54.438Z,72.87
2019-05-21T19:40:03.031Z,72.97
2019-05-21T19:42:10.854Z,72.94
2019-05-21T19:44:18.565Z,72.34
2019-05-21T19:46:26.049Z,73.03
2019-05-21T19:48:33.755Z,73.55
2019-05-21T19:50:41.526Z,73.84
2019-05-21T19:52:49.167Z,73.87
2019-05-21T19:54:56.876Z,73.82
2019-05-21T19:57:04.597Z,75.24
2019-05-21T19:59:12.039Z,75.22
2019-05-21T20:01:19.825Z,75.24
2019-05-21T20:03:27.694Z,75.16
2019-05-21T20:05:35.453Z,74.74
2019-05-21T20:07:44.504Z,75.54
2019-05-21T20:09:54.072Z,75.01
2019-05-21T20:12:01.985Z,74.79
2019-05-21T20:14:10.751Z,74.58
2019-05-21T20:16:19.388Z,75.57
2019-05-21T20:18:27.413Z,74.86
2019-05-21T20:20:35.179Z,74.71
2019-05-21T20:22:44.176Z,75.60
2019-05-21T20:24:52.626Z,75.16
2019-05-21T20:27:00.698Z,75.55
2019-05-21T20:29:09.260Z,76.09
2019-05-21T20:31:17.561Z,75.75
2019-05-21T20:33:26.167Z,76.04
2019-05-21T20:35:36.636Z,74.09
2019-05-21T20:37:45.158Z,75.38
2019-05-21T20:39:53.784Z,75.62
2019-05-21T20:42:03.371Z,75.06
2019-05-21T20:44:14.896Z,75.44
2019-05-21T20:46:24.427Z,75.77
2019-05-21T20:48:35.443Z,74.91
2019-05-21T20:50:44.290Z,75.60
2019-05-21T20:52:52.786Z,75.31
2019-05-21T20:55:01.025Z,74.95
2019-05-21T20:57:10.762Z,76.17
2019-05-21T20:59:18.500Z,77.16
2019-05-21T21:01:27.900Z,76.33
2019-05-21T21:03:35.834Z,76.51
2019-05-21T21:05:44.274Z,76.84
2019-05-21T21:07:52.405Z,76.59
2019-05-21T21:10:00.138Z,77.88
2019-05-21T21:12:10.163Z,75.84
2019-05-21T21:14:19.568Z,76.76
2019-05-21T21:16:27.941Z,74.79
2019-05-21T21:18:36.540Z,75.01
2019-05-21T21:20:44.905Z,76.89
2019-05-21T21:22:53.404Z,76.67
2019-05-21T21:25:01.493Z,76.27
2019-05-21T21:27:10.677Z,75.74
2019-05-21T21:29:19.587Z,76.29
2019-05-21T21:31:27.336Z,75.70
2019-05-21T21:33:35.401Z,75.79
2019-05-21T21:35:43.666Z,75.79
2019-05-21T21:37:51.589Z,75.53
2019-05-21T21:39:59.251Z,75.43
2019-05-21T21:42:08.064Z,75.73
2019-05-21T21:44:15.681Z,76.70
2019-05-21T21:46:23.457Z,75.86
2019-05-21T21:48:32.270Z,76.99
2019-05-21T21:50:41.674Z,76.68
2019-05-21T21:52:49.461Z,76.73
2019-05-21T21:54:57.097Z,76.24
2019-05-21T21:57:04.803Z,76.67
2019-05-21T21:59:12.630Z,75.87
2019-05-21T22:01:54.511Z,75.31
2019-05-21T22:04:07.385Z,75.75
2019-05-21T22:06:18.166Z,75.74
2019-05-21T22:08:26.807Z,76.20
2019-05-21T22:10:34.373Z,75.22
2019-05-21T22:12:43.711Z,75.22
2019-05-21T22:15:00.425Z,75.70
2019-05-21T22:17:10.088Z,77.58
2019-05-21T22:19:19.621Z,75.58
2019-05-21T22:21:27.236Z,76.08
2019-05-21T22:23:35.078Z,75.68
2019-05-21T22:25:42.682Z,75.76
2019-05-21T22:27:50.403Z,75.07
2019-05-21T22:29:58.078Z,76.90
2019-05-21T22:32:05.589Z,76.78
2019-05-21T22:34:13.439Z,76.32
2019-05-21T22:36:21.154Z,76.76
2019-05-21T22:38:32.109Z,76.36
2019-05-21T22:40:38.183Z,75.47
2019-05-21T22:42:45.665Z,75.17
2019-05-21T22:45:07.280Z,76.07
2019-05-21T22:47:05.018Z,76.59
2019-05-21T22:49:13.354Z,76.19
2019-05-21T22:51:20.799Z,75.70
2019-05-21T22:53:29.482Z,76.19
2019-05-21T22:55:37.078Z,77.57
2019-05-21T22:57:44.572Z,76.22
2019-05-21T22:59:52.071Z,76.10
2019-05-21T23:02:01.632Z,76.22
2019-05-21T23:04:09.950Z,75.73
2019-05-21T23:06:17.364Z,75.81
2019-05-21T23:08:26.181Z,76.37
2019-05-21T23:10:34.040Z,75.69
2019-05-21T23:12:41.549Z,76.27
2019-05-21T23:14:49.536Z,76.43
2019-05-21T23:16:57.075Z,76.41
2019-05-21T23:19:05.336Z,76.89
2019-05-21T23:21:14.668Z,76.74
2019-05-21T23:23:23.788Z,76.11
2019-05-21T23:25:32.088Z,77.17
2019-05-21T23:27:39.457Z,76.43
2019-05-21T23:29:47.274Z,75.94
2019-05-21T23:31:55.195Z,76.33
2019-05-21T23:34:03.877Z,76.13
2019-05-21T23:36:11.653Z,76.15
2019-05-21T23:38:20.167Z,76.37
2019-05-21T23:40:28.382Z,76.82
2019-05-21T23:42:36.501Z,76.25
2019-05-21T23:44:44.969Z,77.29
2019-05-21T23:46:52.420Z,77.08
2019-05-21T23:48:59.989Z,76.59
2019-05-21T23:51:07.856Z,76.21
2019-05-21T23:53:15.408Z,76.97
2019-05-21T23:55:23.214Z,77.74
2019-05-21T23:57:33.021Z,76.61
2019-05-21T23:59:40.903Z,76.87
